createdAt,value
2019-05-29T00:00:59.941Z,3.93
2019-05-29T00:03:31.540Z,3.20
2019-05-29T00:06:04.250Z,3.07
2019-05-29T00:08:37.032Z,3.00
2019-05-29T00:11:08.601Z,3.20
2019-05-29T00:13:42.697Z,3.20
2019-05-29T00:16:14.531Z,3.77
2019-05-29T00:18:47.018Z,3.37
2019-05-29T00:21:18.766Z,3.43
2019-05-29T00:23:50.354Z,3.40
2019-05-29T00:26:23.025Z,3.60
2019-05-29T00:28:54.437Z,3.77
2019-05-29T00:31:26.146Z,2.80
2019-05-29T00:33:58.870Z,3.53
2019-05-29T00:36:31.583Z,4.00
2019-05-29T00:39:06.496Z,3.00
2019-05-29T00:41:38.984Z,3.53
2019-05-29T00:44:11.744Z,2.90
2019-05-29T00:46:46.280Z,3.60
2019-05-29T00:49:19.599Z,3.47
2019-05-29T00:51:51.308Z,3.37
2019-05-29T00:54:23.758Z,3.17
2019-05-29T00:56:55.481Z,3.77
2019-05-29T00:59:29.995Z,3.70
2019-05-29T01:02:03.294Z,3.40
2019-05-29T01:04:35.502Z,2.90
2019-05-29T01:07:06.426Z,3.70
2019-05-29T01:09:38.166Z,3.43
2019-05-29T01:12:12.776Z,3.80
2019-05-29T01:14:50.313Z,3.40
2019-05-29T01:17:17.707Z,3.60
2019-05-29T01:19:50.684Z,3.77
2019-05-29T01:22:23.457Z,3.20
2019-05-29T01:24:55.442Z,3.57
2019-05-29T01:27:29.485Z,3.70
2019-05-29T01:30:02.736Z,3.30
2019-05-29T01:32:34.290Z,3.17
2019-05-29T01:35:09.634Z,3.53
2019-05-29T01:37:43.529Z,3.90
2019-05-29T01:40:21.945Z,4.07
2019-05-29T01:42:51.461Z,3.67
2019-05-29T01:45:24.149Z,4.17
2019-05-29T01:47:58.258Z,3.23
2019-05-29T01:50:32.601Z,4.50
2019-05-29T01:53:04.818Z,3.47
2019-05-29T01:55:37.890Z,4.37
2019-05-29T01:58:10.730Z,4.10
2019-05-29T02:00:43.343Z,3.50
2019-05-29T02:03:15.779Z,3.70
2019-05-29T02:05:47.333Z,3.43
2019-05-29T02:08:20.236Z,4.20
2019-05-29T02:10:52.022Z,3.80
2019-05-29T02:13:23.620Z,3.43
2019-05-29T02:15:58.533Z,4.27
2019-05-29T02:18:31.278Z,3.63
2019-05-29T02:21:05.833Z,3.83
2019-05-29T02:23:38.198Z,4.27
2019-05-29T02:26:13.861Z,4.60
2019-05-29T02:28:45.762Z,4.40
2019-05-29T02:31:19.620Z,4.10
2019-05-29T02:33:52.762Z,3.57
2019-05-29T02:36:24.733Z,4.20
2019-05-29T02:38:57.726Z,3.63
2019-05-29T02:41:29.923Z,4.53
2019-05-29T02:44:02.452Z,3.70
2019-05-29T02:46:34.935Z,4.57
2019-05-29T02:49:07.323Z,3.93
2019-05-29T02:51:38.695Z,4.80
2019-05-29T02:54:11.329Z,4.53
2019-05-29T02:56:42.897Z,4.00
2019-05-29T02:59:16.230Z,4.60
2019-05-29T03:01:47.628Z,4.43
2019-05-29T03:04:21.451Z,4.70
2019-05-29T03:06:53.437Z,4.87
2019-05-29T03:09:26.654Z,4.70
2019-05-29T03:12:02.042Z,5.23
2019-05-29T03:14:34.719Z,5.07
2019-05-29T03:17:06.718Z,5.17
2019-05-29T03:19:38.580Z,4.40
2019-05-29T03:22:10.408Z,5.03
2019-05-29T03:24:45.897Z,4.70
2019-05-29T03:27:17.437Z,8.00
2019-05-29T03:29:49.760Z,6.50
2019-05-29T03:32:21.466Z,5.87
2019-05-29T03:34:54.917Z,5.97
2019-05-29T03:37:26.743Z,4.93
2019-05-29T03:40:00.365Z,5.13
2019-05-29T03:42:34.918Z,5.30
2019-05-29T03:45:07.441Z,4.40
2019-05-29T03:47:39.790Z,5.30
2019-05-29T03:50:15.906Z,4.60
2019-05-29T03:52:48.449Z,5.17
2019-05-29T03:55:19.779Z,5.00
2019-05-29T03:57:51.895Z,5.77
2019-05-29T04:00:29.895Z,5.23
2019-05-29T04:02:58.844Z,5.77
2019-05-29T04:05:31.118Z,4.70
2019-05-29T04:08:02.690Z,5.47
2019-05-29T04:10:37.376Z,5.33
2019-05-29T04:13:08.718Z,5.30
2019-05-29T04:15:41.987Z,5.30
2019-05-29T04:18:24.538Z,5.40
2019-05-29T04:20:58.540Z,5.30
2019-05-29T04:23:35.975Z,4.70
2019-05-29T04:26:11.599Z,5.70
2019-05-29T04:28:44.874Z,5.50
2019-05-29T04:31:16.737Z,5.37
2019-05-29T04:33:49.615Z,5.47
2019-05-29T04:36:22.359Z,5.60
2019-05-29T04:38:53.953Z,5.50
2019-05-29T04:41:25.683Z,4.60
2019-05-29T04:43:59.110Z,4.90
2019-05-29T04:46:31.753Z,5.80
2019-05-29T04:49:04.417Z,5.23
2019-05-29T04:51:37.336Z,5.53
2019-05-29T04:54:09.298Z,5.70
2019-05-29T04:56:41.726Z,5.20
2019-05-29T04:59:14.388Z,4.70
2019-05-29T05:01:46.781Z,5.30
2019-05-29T05:04:20.870Z,5.17
2019-05-29T05:06:53.567Z,4.30
2019-05-29T05:09:27.093Z,5.43
2019-05-29T05:11:59.778Z,5.60
2019-05-29T05:14:31.666Z,4.60
2019-05-29T05:17:03.950Z,5.00
2019-05-29T05:19:36.370Z,4.73
2019-05-29T05:22:08.629Z,5.03
2019-05-29T05:24:43.886Z,4.57
2019-05-29T05:27:14.753Z,5.60
2019-05-29T05:29:45.804Z,5.20
2019-05-29T05:32:17.974Z,5.20
2019-05-29T05:34:50.503Z,4.00
2019-05-29T05:37:22.229Z,5.33
2019-05-29T05:39:53.757Z,4.53
2019-05-29T05:42:28.183Z,5.33
2019-05-29T05:45:01.630Z,4.97
2019-05-29T05:47:50.320Z,4.00
2019-05-29T05:50:09.706Z,4.93
2019-05-29T05:52:44.118Z,4.00
2019-05-29T05:55:17.610Z,4.73
2019-05-29T05:57:50.593Z,4.43
2019-05-29T06:00:32.127Z,4.93
2019-05-29T06:03:04.410Z,5.37
2019-05-29T06:05:38.236Z,4.03
2019-05-29T06:08:10.033Z,4.43
2019-05-29T06:10:42.390Z,3.57
2019-05-29T06:13:14.496Z,4.57
2019-05-29T06:15:46.362Z,4.30
2019-05-29T06:18:21.693Z,4.00
2019-05-29T06:20:51.049Z,4.33
2019-05-29T06:23:23.442Z,3.30
2019-05-29T06:25:55.838Z,3.80
2019-05-29T06:28:27.745Z,3.10
2019-05-29T06:31:00.520Z,3.30
2019-05-29T06:33:35.280Z,2.80
2019-05-29T06:36:07.249Z,4.30
2019-05-29T06:38:40.252Z,3.33
2019-05-29T06:41:12.053Z,2.53
2019-05-29T06:43:44.323Z,3.33
2019-05-29T06:46:17.692Z,3.20
2019-05-29T06:48:59.650Z,3.20
2019-05-29T06:51:23.646Z,2.67
2019-05-29T06:53:56.010Z,2.50
2019-05-29T06:56:27.739Z,2.80
2019-05-29T06:58:59.650Z,2.63
2019-05-29T07:01:31.474Z,2.97
2019-05-29T07:04:12.019Z,2.73
2019-05-29T07:06:40.581Z,2.10
2019-05-29T07:09:14.114Z,2.80
2019-05-29T07:11:45.535Z,2.63
2019-05-29T07:14:18.227Z,2.43
2019-05-29T07:16:55.978Z,3.10
2019-05-29T07:19:34.225Z,2.30
2019-05-29T07:21:57.296Z,2.57
2019-05-29T07:24:28.734Z,2.30
2019-05-29T07:27:02.750Z,2.10
2019-05-29T07:29:36.916Z,2.00
2019-05-29T07:32:09.753Z,2.30
2019-05-29T07:34:58.168Z,2.70
2019-05-29T07:37:17.470Z,2.20
2019-05-29T07:39:49.341Z,2.60
2019-05-29T07:42:23.541Z,2.70
2019-05-29T07:44:56.037Z,2.80
2019-05-29T07:47:27.366Z,2.50
2019-05-29T07:50:00.471Z,2.53
2019-05-29T07:52:32.880Z,2.40
2019-05-29T07:55:08.941Z,2.43
2019-05-29T07:57:42.660Z,2.10
2019-05-29T08:00:15.912Z,2.20
2019-05-29T08:02:49.487Z,2.30
2019-05-29T08:05:24.878Z,2.10
2019-05-29T08:07:57.564Z,2.00
2019-05-29T08:10:30.663Z,2.60
2019-05-29T08:13:03.810Z,2.70
2019-05-29T08:15:49.204Z,2.80
2019-05-29T08:18:08.482Z,2.80
2019-05-29T08:20:41.849Z,3.00
2019-05-29T08:23:13.382Z,2.50
2019-05-29T08:25:45.327Z,2.00
2019-05-29T08:28:17.749Z,2.00
2019-05-29T08:30:54.133Z,2.37
2019-05-29T08:33:24.149Z,2.00
2019-05-29T08:36:00.182Z,1.80
2019-05-29T08:38:31.140Z,2.30
2019-05-29T08:41:05.896Z,2.63
2019-05-29T08:43:42.367Z,2.20
2019-05-29T08:46:14.257Z,2.73
2019-05-29T08:48:48.228Z,2.17
2019-05-29T08:51:22.738Z,2.20
2019-05-29T08:53:57.626Z,2.17
2019-05-29T08:56:30.626Z,2.20
2019-05-29T08:59:02.106Z,2.33
2019-05-29T09:01:33.519Z,1.83
2019-05-29T09:04:08.138Z,2.20
2019-05-29T09:06:39.473Z,1.97
2019-05-29T09:09:13.538Z,2.00
2019-05-29T09:11:47.357Z,2.20
2019-05-29T09:14:20.705Z,2.37
2019-05-29T09:16:52.606Z,2.17
2019-05-29T09:19:23.596Z,2.30
2019-05-29T09:21:55.978Z,2.50
2019-05-29T09:24:28.163Z,2.10
2019-05-29T09:27:02.096Z,2.00
2019-05-29T09:29:34.740Z,2.00
2019-05-29T09:32:07.033Z,2.10
2019-05-29T09:34:40.563Z,2.07
2019-05-29T09:37:14.188Z,2.10
2019-05-29T09:39:47.519Z,2.50
2019-05-29T09:42:20.703Z,1.90
2019-05-29T09:44:52.604Z,2.40
2019-05-29T09:47:24.335Z,2.33
2019-05-29T09:49:55.416Z,2.30
2019-05-29T09:52:30.492Z,2.30
2019-05-29T09:55:00.915Z,2.10
2019-05-29T09:57:42.821Z,2.07
2019-05-29T10:00:15.919Z,2.03
2019-05-29T10:02:48.643Z,2.40
2019-05-29T10:05:22.116Z,2.10
2019-05-29T10:07:55.150Z,2.07
2019-05-29T10:10:28.461Z,2.30
2019-05-29T10:13:02.726Z,2.23
2019-05-29T10:15:35.597Z,2.00
2019-05-29T10:18:13.273Z,2.20
2019-05-29T10:20:41.082Z,2.40
2019-05-29T10:23:12.467Z,2.80
2019-05-29T10:25:44.222Z,2.47
2019-05-29T10:28:16.721Z,2.63
2019-05-29T10:30:50.250Z,2.33
2019-05-29T10:33:21.633Z,1.97
2019-05-29T10:35:55.481Z,1.80
2019-05-29T10:38:28.050Z,1.87
2019-05-29T10:41:06.194Z,1.87
2019-05-29T10:43:34.994Z,1.80
2019-05-29T10:46:07.362Z,1.90
2019-05-29T10:48:39.822Z,1.87
2019-05-29T10:51:11.290Z,2.10
2019-05-29T10:53:47.167Z,2.10
2019-05-29T10:56:21.303Z,1.90
2019-05-29T10:58:59.119Z,2.10
2019-05-29T11:01:28.026Z,2.33
2019-05-29T11:03:59.795Z,2.37
2019-05-29T11:06:31.661Z,1.93
2019-05-29T11:09:04.154Z,2.03
2019-05-29T11:11:35.463Z,2.20
2019-05-29T11:14:08.082Z,2.23
2019-05-29T11:16:40.891Z,2.20
2019-05-29T11:19:13.198Z,1.90
2019-05-29T11:21:45.613Z,2.00
2019-05-29T11:24:18.270Z,1.70
2019-05-29T11:26:50.341Z,2.30
2019-05-29T11:29:23.193Z,2.17
2019-05-29T11:31:57.004Z,2.00
2019-05-29T11:34:30.894Z,2.13
2019-05-29T11:37:02.742Z,2.30
2019-05-29T11:39:35.535Z,2.20
2019-05-29T11:42:07.420Z,2.57
2019-05-29T11:44:38.977Z,2.30
2019-05-29T11:47:10.421Z,2.20
2019-05-29T11:49:42.813Z,1.87
2019-05-29T11:52:24.415Z,2.10
2019-05-29T11:54:48.559Z,2.13
2019-05-29T11:57:21.258Z,2.10
2019-05-29T11:59:53.827Z,1.90
2019-05-29T12:02:25.499Z,2.20
2019-05-29T12:05:02.707Z,2.37
2019-05-29T12:07:30.916Z,2.40
2019-05-29T12:10:05.161Z,2.07
2019-05-29T12:12:38.607Z,2.20
2019-05-29T12:15:15.070Z,2.40
2019-05-29T12:17:45.837Z,2.33
2019-05-29T12:20:27.952Z,2.10
2019-05-29T12:23:13.345Z,2.00
2019-05-29T12:25:27.043Z,2.30
2019-05-29T12:27:59.256Z,2.10
2019-05-29T12:30:31.190Z,2.10
2019-05-29T12:33:03.878Z,2.13
2019-05-29T12:35:35.762Z,2.40
2019-05-29T12:38:07.673Z,2.90
2019-05-29T12:40:40.124Z,2.20
2019-05-29T12:43:25.987Z,2.40
2019-05-29T12:45:44.616Z,2.10
2019-05-29T12:48:16.585Z,2.00
2019-05-29T12:50:50.324Z,2.37
2019-05-29T12:53:30.407Z,2.03
2019-05-29T12:56:00.563Z,2.10
2019-05-29T12:58:33.190Z,2.00
2019-05-29T13:01:07.726Z,1.97
2019-05-29T13:03:45.668Z,2.10
2019-05-29T13:06:15.966Z,2.03
2019-05-29T13:08:49.226Z,2.10
2019-05-29T13:11:23.213Z,2.10
2019-05-29T13:13:56.300Z,1.80
2019-05-29T13:16:29.499Z,2.23
2019-05-29T13:19:01.124Z,1.90
2019-05-29T13:21:32.996Z,1.90
2019-05-29T13:24:11.111Z,1.90
2019-05-29T13:26:40.464Z,1.70
2019-05-29T13:29:13.178Z,1.90
2019-05-29T13:31:45.922Z,2.50
2019-05-29T13:34:17.768Z,3.00
2019-05-29T13:36:52.412Z,3.00
2019-05-29T13:39:23.500Z,2.57
2019-05-29T13:41:56.147Z,2.60
2019-05-29T13:44:27.073Z,2.00
2019-05-29T13:46:59.782Z,2.43
2019-05-29T13:49:35.582Z,2.50
2019-05-29T13:52:12.218Z,1.80
2019-05-29T13:54:41.918Z,2.07
2019-05-29T13:57:14.622Z,2.07
2019-05-29T14:02:39.007Z,2.00
2019-05-29T14:05:11.494Z,2.20
2019-05-29T14:07:43.507Z,1.60
2019-05-29T14:10:17.764Z,2.00
2019-05-29T14:12:50.488Z,1.70
2019-05-29T14:15:22.251Z,2.10
2019-05-29T14:17:53.681Z,1.80
2019-05-29T14:20:25.918Z,2.10
2019-05-29T14:22:58.249Z,1.90
2019-05-29T14:25:30.987Z,1.97
2019-05-29T14:28:02.698Z,2.00
2019-05-29T14:30:34.538Z,2.57
2019-05-29T14:33:06.789Z,2.70
2019-05-29T14:35:40.093Z,3.10
2019-05-29T14:38:15.024Z,2.90
2019-05-29T14:40:46.045Z,3.07
2019-05-29T14:43:17.886Z,2.70
2019-05-29T14:45:51.258Z,2.70
2019-05-29T14:48:22.679Z,2.70
2019-05-29T14:50:53.978Z,2.57
2019-05-29T14:53:26.342Z,2.60
2019-05-29T14:55:57.569Z,3.10
2019-05-29T14:58:32.028Z,2.63
2019-05-29T15:01:03.482Z,2.47
2019-05-29T15:03:34.813Z,2.97
2019-05-29T15:06:09.650Z,3.20
2019-05-29T15:08:42.942Z,2.73
2019-05-29T15:11:14.305Z,2.83
2019-05-29T15:13:46.078Z,2.63
2019-05-29T15:16:19.502Z,3.07
2019-05-29T15:18:52.186Z,2.70
2019-05-29T15:21:26.413Z,2.87
2019-05-29T15:23:59.606Z,2.40
2019-05-29T15:26:32.079Z,1.80
2019-05-29T15:29:04.359Z,2.20
2019-05-29T15:31:36.090Z,2.60
2019-05-29T15:34:08.854Z,2.23
2019-05-29T15:36:43.562Z,2.57
2019-05-29T15:39:16.878Z,2.93
2019-05-29T15:41:48.424Z,2.40
2019-05-29T15:44:22.803Z,2.20
2019-05-29T15:46:53.846Z,3.17
2019-05-29T15:49:26.138Z,3.00
2019-05-29T15:51:58.798Z,2.20
2019-05-29T15:54:30.404Z,2.77
2019-05-29T15:57:02.743Z,2.00
2019-05-29T15:59:36.827Z,2.57
2019-05-29T16:02:11.476Z,2.80
2019-05-29T16:04:43.462Z,2.60
2019-05-29T16:07:18.335Z,2.20
2019-05-29T16:09:49.930Z,2.43
2019-05-29T16:12:23.253Z,2.13
2019-05-29T16:14:55.987Z,2.90
2019-05-29T16:17:28.579Z,2.87
2019-05-29T16:20:00.267Z,2.57
2019-05-29T16:22:31.446Z,3.27
2019-05-29T16:25:38.877Z,2.80
2019-05-29T16:27:56.711Z,2.80
2019-05-29T16:30:29.530Z,2.97
2019-05-29T16:33:01.374Z,2.90
2019-05-29T16:35:37.483Z,2.60
2019-05-29T16:38:11.826Z,2.70
2019-05-29T16:40:44.948Z,2.50
2019-05-29T16:43:16.496Z,3.00
2019-05-29T16:45:49.653Z,3.10
2019-05-29T16:48:22.811Z,2.60
2019-05-29T16:50:55.335Z,2.80
2019-05-29T16:53:29.742Z,13.00
2019-05-29T16:56:00.694Z,3.07
2019-05-29T16:58:32.595Z,2.70
2019-05-29T17:01:04.695Z,2.50
2019-05-29T17:03:39.202Z,2.57
2019-05-29T17:06:11.838Z,2.50
2019-05-29T17:08:44.686Z,2.83
2019-05-29T17:11:18.557Z,3.30
2019-05-29T17:13:51.410Z,3.03
2019-05-29T17:16:23.289Z,3.87
2019-05-29T17:18:55.461Z,3.17
2019-05-29T17:21:27.269Z,3.47
2019-05-29T17:24:01.440Z,3.20
2019-05-29T17:26:34.770Z,1.70
2019-05-29T17:29:07.162Z,4.20
2019-05-29T17:31:40.690Z,1.37
2019-05-29T17:34:13.170Z,1.93
2019-05-29T17:36:45.849Z,2.20
2019-05-29T17:39:21.375Z,2.40
2019-05-29T17:41:53.358Z,3.00
2019-05-29T17:44:28.072Z,1.90
2019-05-29T17:47:00.474Z,1.83
2019-05-29T17:49:34.883Z,2.03
2019-05-29T17:52:07.205Z,1.80
2019-05-29T17:54:39.240Z,1.97
2019-05-29T17:57:12.182Z,1.80
2019-05-29T17:59:44.985Z,1.90
2019-05-29T18:02:17.996Z,1.70
2019-05-29T18:04:50.752Z,1.60
2019-05-29T18:07:24.710Z,2.50
2019-05-29T18:09:56.454Z,3.37
2019-05-29T18:12:29.139Z,2.03
2019-05-29T18:15:01.982Z,2.57
2019-05-29T18:17:33.527Z,4.70
2019-05-29T18:20:14.273Z,10.70
2019-05-29T18:22:45.002Z,2.80
2019-05-29T18:25:17.912Z,1.83
2019-05-29T18:27:49.449Z,2.07
2019-05-29T18:30:24.344Z,2.20
2019-05-29T18:32:56.938Z,2.50
2019-05-29T18:35:29.067Z,3.43
2019-05-29T18:38:01.670Z,3.47
2019-05-29T18:40:33.504Z,2.70
2019-05-29T18:43:07.220Z,1.93
2019-05-29T18:45:39.957Z,2.20
2019-05-29T18:48:11.498Z,1.90
2019-05-29T18:50:44.338Z,2.50
2019-05-29T18:53:18.733Z,4.00
2019-05-29T18:55:49.740Z,2.30
2019-05-29T18:58:22.212Z,2.07
2019-05-29T19:00:53.581Z,2.00
2019-05-29T19:03:27.449Z,2.80
2019-05-29T19:06:00.514Z,4.23
2019-05-29T19:08:33.283Z,3.33
2019-05-29T19:11:05.750Z,2.10
2019-05-29T19:13:38.110Z,1.97
2019-05-29T19:16:10.493Z,2.30
2019-05-29T19:18:44.498Z,1.90
2019-05-29T19:21:18.956Z,2.30
2019-05-29T19:23:51.466Z,2.00
2019-05-29T19:26:24.754Z,1.90
2019-05-29T19:28:56.729Z,1.80
2019-05-29T19:31:29.139Z,2.20
2019-05-29T19:34:00.793Z,2.23
2019-05-29T19:36:33.891Z,2.20
2019-05-29T19:39:07.256Z,2.53
2019-05-29T19:41:38.478Z,2.50
2019-05-29T19:44:11.308Z,2.80
2019-05-29T19:46:53.794Z,2.70
2019-05-29T19:49:18.187Z,2.97
2019-05-29T19:51:50.840Z,2.77
2019-05-29T19:54:23.278Z,4.00
2019-05-29T19:56:55.665Z,3.83
2019-05-29T19:59:28.030Z,4.00
2019-05-29T20:01:59.790Z,3.80
2019-05-29T20:04:32.655Z,3.97
2019-05-29T20:07:04.671Z,3.70
2019-05-29T20:09:37.614Z,3.60
2019-05-29T20:12:10.325Z,3.40
2019-05-29T20:14:43.233Z,3.70
2019-05-29T20:17:16.324Z,4.13
2019-05-29T20:19:47.882Z,3.83
2019-05-29T20:22:20.175Z,3.70
2019-05-29T20:24:52.447Z,4.10
2019-05-29T20:27:25.411Z,3.80
2019-05-29T20:29:57.854Z,3.60
2019-05-29T20:32:30.521Z,3.63
2019-05-29T20:35:03.174Z,2.70
2019-05-29T20:37:36.277Z,3.00
2019-05-29T20:40:08.865Z,2.67
2019-05-29T20:42:40.751Z,2.80
2019-05-29T20:45:13.625Z,2.90
2019-05-29T20:47:45.330Z,2.27
2019-05-29T20:50:18.952Z,2.40
2019-05-29T20:52:51.246Z,2.40
2019-05-29T20:55:25.384Z,2.30
2019-05-29T20:57:58.034Z,2.47
2019-05-29T21:00:31.860Z,2.90
2019-05-29T21:03:04.461Z,2.63
2019-05-29T21:05:37.158Z,2.30
2019-05-29T21:08:11.216Z,3.83
2019-05-29T21:10:43.529Z,2.10
2019-05-29T21:13:15.321Z,2.57
2019-05-29T21:15:46.063Z,6.87
2019-05-29T21:18:18.346Z,2.67
2019-05-29T21:20:51.076Z,2.70
2019-05-29T21:23:23.781Z,2.07
2019-05-29T21:25:55.662Z,2.47
2019-05-29T21:28:39.801Z,2.40
2019-05-29T21:31:01.593Z,2.33
2019-05-29T21:33:33.686Z,2.47
2019-05-29T21:36:07.245Z,2.40
2019-05-29T21:38:40.131Z,2.70
2019-05-29T21:41:13.661Z,2.57
2019-05-29T21:43:49.415Z,2.97
2019-05-29T21:46:23.673Z,2.67
2019-05-29T21:48:55.413Z,2.80
2019-05-29T21:51:28.121Z,2.33
2019-05-29T21:54:00.794Z,2.80
2019-05-29T21:56:33.878Z,3.00
2019-05-29T21:59:06.589Z,2.70
2019-05-29T22:01:38.314Z,2.67
2019-05-29T22:04:10.839Z,2.60
2019-05-29T22:06:42.610Z,2.90
2019-05-29T22:09:17.001Z,2.67
2019-05-29T22:11:48.353Z,2.70
2019-05-29T22:14:20.686Z,2.40
2019-05-29T22:16:54.962Z,2.73
2019-05-29T22:19:27.403Z,2.60
2019-05-29T22:22:02.480Z,2.47
2019-05-29T22:24:35.255Z,2.50
2019-05-29T22:27:07.585Z,3.00
2019-05-29T22:29:39.365Z,2.77
2019-05-29T22:32:11.712Z,3.03
2019-05-29T22:34:43.454Z,2.40
2019-05-29T22:37:15.894Z,3.07
2019-05-29T22:39:47.222Z,3.00
2019-05-29T22:42:18.661Z,2.70
2019-05-29T22:44:53.502Z,2.50
2019-05-29T22:47:26.457Z,2.77
2019-05-29T22:49:57.969Z,2.73
2019-05-29T22:52:30.780Z,3.00
2019-05-29T22:55:02.461Z,3.00
2019-05-29T22:57:35.280Z,2.83
2019-05-29T23:00:08.105Z,3.20
2019-05-29T23:02:40.817Z,2.87
2019-05-29T23:05:13.534Z,3.40
2019-05-29T23:07:46.406Z,3.13
2019-05-29T23:10:18.563Z,3.13
2019-05-29T23:12:50.363Z,3.20
2019-05-29T23:15:21.873Z,3.13
2019-05-29T23:17:54.546Z,3.47
2019-05-29T23:20:28.036Z,3.03
2019-05-29T23:23:00.861Z,3.50
2019-05-29T23:25:33.502Z,3.27
2019-05-29T23:28:07.565Z,3.33
2019-05-29T23:30:40.258Z,3.07
2019-05-29T23:33:13.025Z,3.13
2019-05-29T23:35:46.261Z,3.70
2019-05-29T23:38:17.837Z,2.83
2019-05-29T23:40:49.176Z,3.10
2019-05-29T23:43:21.786Z,3.30
2019-05-29T23:45:55.387Z,3.57
2019-05-29T23:48:27.904Z,3.20
2019-05-29T23:51:01.674Z,3.73
2019-05-29T23:53:33.326Z,3.90
2019-05-29T23:56:07.439Z,3.53
2019-05-29T23:58:41.368Z,3.50
